Time;durP1;ratioP1;P1;durP2;ratioP2;P2;SDS_P1;SDS_P2;PMS_P1;PMS_P2;Temp;Humidity;BMP_temperature;BMP_pressure;BME280_temperature;BME280_humidity;BME280_pressure;Samples;Min_cycle;Max_cycle;Signal;HPM_P1;HPM_P2
2024/02/19 00:01:21;;;;;;;13.77;2.30;;;9.50;90.80;;;;;;9178263;19;20022;-69
2024/02/19 00:04:26;;;;;;;16.35;3.05;;;9.50;90.80;;;;;;9178677;19;20056;-69
2024/02/19 00:07:34;;;;;;;11.48;2.70;;;9.50;90.60;;;;;;9176170;19;20023;-69
2024/02/19 00:10:42;;;;;;;14.23;2.33;;;9.50;90.80;;;;;;9178011;19;20021;-69
2024/02/19 00:13:50;;;;;;;12.95;2.10;;;9.40;90.70;;;;;;9177170;19;20011;-68
2024/02/19 00:16:56;;;;;;;15.90;2.67;;;9.40;90.70;;;;;;9179000;19;20022;-69
2024/02/19 00:20:03;;;;;;;11.45;2.40;;;9.40;90.70;;;;;;9176057;19;20025;-69
2024/02/19 00:23:09;;;;;;;15.20;2.67;;;9.40;90.60;;;;;;9176016;19;20049;-69
2024/02/19 00:26:19;;;;;;;18.65;2.15;;;9.40;90.70;;;;;;9173105;19;20025;-69
2024/02/19 00:29:25;;;;;;;11.38;2.15;;;9.40;90.60;;;;;;9173565;19;20018;-69
2024/02/19 00:32:32;;;;;;;14.15;3.15;;;9.40;90.70;;;;;;9176471;19;20010;-68
2024/02/19 00:35:38;;;;;;;17.27;2.20;;;9.30;90.60;;;;;;9177690;19;20022;-68
2024/02/19 00:38:46;;;;;;;20.67;3.28;;;9.30;90.60;;;;;;9176591;19;20033;-69
2024/02/19 00:41:54;;;;;;;14.23;2.00;;;9.30;90.60;;;;;;9176979;19;20015;-69
2024/02/19 00:45:01;;;;;;;14.13;2.08;;;9.30;90.60;;;;;;9177436;19;20025;-69
2024/02/19 00:48:08;;;;;;;15.82;1.95;;;9.30;90.60;;;;;;9177188;19;20713;-69
2024/02/19 00:51:15;;;;;;;11.15;1.65;;;9.20;90.60;;;;;;9175904;19;20026;-68
2024/02/19 00:54:21;;;;;;;14.10;2.30;;;9.20;90.60;;;;;;9174379;19;20044;-68
2024/02/19 00:57:31;;;;;;;17.08;1.75;;;9.20;90.60;;;;;;9175144;19;20472;-68
2024/02/19 01:00:36;;;;;;;16.17;1.38;;;9.20;90.60;;;;;;9174593;19;20019;-69
2024/02/19 01:03:46;;;;;;;8.05;1.45;;;9.20;90.60;;;;;;9175106;19;20021;-69
2024/02/19 01:06:52;;;;;;;8.75;1.15;;;9.10;90.50;;;;;;9176304;19;20098;-69
2024/02/19 01:09:59;;;;;;;16.13;2.13;;;9.20;90.50;;;;;;9175225;19;20015;-68
2024/02/19 01:13:07;;;;;;;10.75;1.92;;;9.20;90.70;;;;;;9173378;19;20018;-69
2024/02/19 01:16:15;;;;;;;13.73;2.63;;;9.10;90.50;;;;;;9175679;19;20014;-69
2024/02/19 01:19:21;;;;;;;7.78;1.17;;;9.10;90.50;;;;;;9175270;19;20013;-68
2024/02/19 01:22:29;;;;;;;7.82;1.15;;;9.10;90.60;;;;;;9174741;19;20018;-68
2024/02/19 01:25:35;;;;;;;10.50;1.33;;;9.10;90.60;;;;;;9169458;19;20802;-68
2024/02/19 01:28:45;;;;;;;12.82;2.00;;;9.00;90.60;;;;;;9175261;19;20021;-68
2024/02/19 01:31:50;;;;;;;8.45;1.77;;;9.00;90.50;;;;;;9172973;19;20598;-68
2024/02/19 01:34:58;;;;;;;6.90;1.40;;;9.10;90.60;;;;;;9174933;19;20457;-68
2024/02/19 01:38:04;;;;;;;7.47;1.30;;;9.20;90.70;;;;;;9175014;19;20021;-68
2024/02/19 01:41:11;;;;;;;7.63;1.02;;;9.10;90.60;;;;;;9173537;19;20019;-68
2024/02/19 01:44:20;;;;;;;6.35;1.05;;;9.00;90.60;;;;;;9174424;19;20496;-68
2024/02/19 01:47:28;;;;;;;4.50;0.98;;;9.00;90.50;;;;;;9174331;19;20111;-68
2024/02/19 01:50:36;;;;;;;4.32;1.05;;;9.00;90.50;;;;;;9174492;19;20032;-68
2024/02/19 01:53:44;;;;;;;4.95;0.93;;;9.00;90.50;;;;;;9174541;19;20038;-68
2024/02/19 01:56:51;;;;;;;5.10;1.65;;;9.00;90.50;;;;;;9174325;19;20052;-68
2024/02/19 02:00:05;;;;;;;8.50;1.15;;;9.10;90.60;;;;;;9173769;19;20086;-68
2024/02/19 02:03:19;;;;;;;12.88;1.58;;;9.00;90.50;;;;;;9173082;19;20475;-68
2024/02/19 02:06:27;;;;;;;8.20;1.48;;;9.10;90.60;;;;;;9174920;19;20029;-68
2024/02/19 02:09:33;;;;;;;9.18;1.35;;;9.00;90.50;;;;;;9178055;19;20018;-68
2024/02/19 02:12:40;;;;;;;4.93;1.42;;;9.00;90.60;;;;;;9183358;19;20759;-68
2024/02/19 02:15:48;;;;;;;9.07;1.65;;;9.00;90.60;;;;;;9181902;19;20015;-68
2024/02/19 02:18:56;;;;;;;4.35;1.15;;;9.00;90.60;;;;;;9183050;19;20383;-68
2024/02/19 02:22:02;;;;;;;9.55;1.95;;;9.10;90.60;;;;;;9177777;19;20078;-68
2024/02/19 02:25:10;;;;;;;10.00;1.55;;;9.10;90.70;;;;;;9177161;19;20086;-68
2024/02/19 02:28:18;;;;;;;12.07;2.33;;;9.00;90.60;;;;;;9182618;19;20024;-68
2024/02/19 02:31:26;;;;;;;12.65;1.83;;;9.10;90.70;;;;;;9182186;19;20037;-68
2024/02/19 02:34:31;;;;;;;11.68;1.83;;;9.00;90.70;;;;;;9182780;19;20022;-68
2024/02/19 02:37:39;;;;;;;10.60;1.60;;;9.10;90.70;;;;;;9181943;19;20350;-68
2024/02/19 02:40:44;;;;;;;11.48;1.30;;;9.10;90.60;;;;;;9180626;19;20495;-68
2024/02/19 02:43:54;;;;;;;9.98;1.63;;;9.10;90.60;;;;;;9181582;19;20006;-68
2024/02/19 02:47:00;;;;;;;12.52;1.80;;;9.10;90.60;;;;;;9181300;19;20378;-68
2024/02/19 02:50:08;;;;;;;8.85;1.45;;;9.10;90.50;;;;;;9181588;19;20019;-68
2024/02/19 02:53:14;;;;;;;16.88;2.17;;;9.00;90.50;;;;;;9181837;19;20030;-68
2024/02/19 02:56:22;;;;;;;8.52;1.40;;;9.10;90.50;;;;;;9181166;19;20814;-68
2024/02/19 02:59:30;;;;;;;9.02;2.00;;;9.00;90.70;;;;;;9180785;19;20456;-68
2024/02/19 03:02:37;;;;;;;11.77;1.42;;;9.10;90.50;;;;;;9177939;19;20019;-68
2024/02/19 03:05:43;;;;;;;6.53;1.55;;;9.10;90.60;;;;;;9181582;19;20090;-68
2024/02/19 03:08:50;;;;;;;10.68;1.60;;;9.10;90.60;;;;;;9177497;19;20030;-68
2024/02/19 03:11:56;;;;;;;7.60;2.28;;;9.10;90.50;;;;;;9179944;19;20488;-68
2024/02/19 03:15:07;;;;;;;8.73;2.13;;;9.10;90.60;;;;;;9179518;19;20684;-68
2024/02/19 03:18:12;;;;;;;25.58;4.70;;;9.10;90.50;;;;;;9175582;19;20439;-68
2024/02/19 03:21:20;;;;;;;11.80;1.40;;;9.00;90.50;;;;;;9179223;19;20015;-68
2024/02/19 03:24:26;;;;;;;12.00;1.63;;;9.00;90.60;;;;;;9180144;19;20019;-68
2024/02/19 03:27:33;;;;;;;13.05;1.58;;;9.00;90.50;;;;;;9174837;19;20018;-68
2024/02/19 03:30:41;;;;;;;13.90;1.83;;;9.10;90.60;;;;;;9178626;19;20013;-68
2024/02/19 03:33:49;;;;;;;15.23;2.70;;;9.00;90.60;;;;;;9179816;19;20017;-68
2024/02/19 03:36:55;;;;;;;16.70;3.10;;;9.10;90.60;;;;;;9179369;19;20023;-68
2024/02/19 03:40:06;;;;;;;14.90;2.80;;;9.10;90.60;;;;;;9180040;19;20025;-70
2024/02/19 03:43:12;;;;;;;15.57;1.58;;;9.10;90.60;;;;;;9179651;19;20781;-68
2024/02/19 03:46:22;;;;;;;29.17;2.05;;;9.10;90.60;;;;;;9179256;19;20014;-68
2024/02/19 03:49:28;;;;;;;14.77;1.55;;;9.10;90.60;;;;;;9180086;19;20015;-68
2024/02/19 03:52:36;;;;;;;14.00;1.95;;;9.10;90.70;;;;;;9179342;19;20492;-68
2024/02/19 03:55:41;;;;;;;11.23;1.73;;;9.10;90.70;;;;;;9178616;19;20093;-68
2024/02/19 03:58:49;;;;;;;9.32;2.28;;;9.10;90.60;;;;;;9179597;19;20461;-67
2024/02/19 04:01:57;;;;;;;9.43;2.53;;;9.10;90.60;;;;;;9177203;19;20399;-67
2024/02/19 04:05:05;;;;;;;19.73;3.15;;;9.20;90.60;;;;;;9179018;19;20010;-68
2024/02/19 04:08:10;;;;;;;10.70;3.00;;;9.10;90.70;;;;;;9176420;19;20018;-68
2024/02/19 04:11:18;;;;;;;16.00;1.65;;;9.20;90.70;;;;;;9177209;19;20307;-67
2024/02/19 04:14:24;;;;;;;10.32;1.92;;;9.20;90.60;;;;;;9176452;19;20019;-67
2024/02/19 04:17:35;;;;;;;19.02;2.05;;;9.20;90.60;;;;;;9175574;19;20022;-67
2024/02/19 04:20:40;;;;;;;15.98;2.13;;;9.20;90.70;;;;;;9176814;19;20022;-66
2024/02/19 04:23:48;;;;;;;14.35;2.85;;;9.30;90.60;;;;;;9176657;19;20022;-67
2024/02/19 04:26:53;;;;;;;18.85;3.58;;;9.30;90.60;;;;;;9172376;19;20019;-67
2024/02/19 04:30:01;;;;;;;15.88;3.03;;;9.30;90.80;;;;;;9176582;19;20025;-69
2024/02/19 04:33:09;;;;;;;14.13;2.50;;;9.30;90.60;;;;;;9176709;19;20026;-67
2024/02/19 04:36:17;;;;;;;21.50;2.40;;;9.30;90.70;;;;;;9177030;19;20025;-66
2024/02/19 04:39:22;;;;;;;20.70;2.53;;;9.30;90.70;;;;;;9177261;19;20014;-68
2024/02/19 04:42:30;;;;;;;19.90;3.05;;;9.40;90.70;;;;;;9175900;19;20078;-68
2024/02/19 04:45:35;;;;;;;20.05;2.40;;;9.30;90.60;;;;;;9177396;19;20006;-68
2024/02/19 04:48:46;;;;;;;23.52;2.70;;;9.30;90.70;;;;;;9176014;19;20021;-68
2024/02/19 04:51:51;;;;;;;20.13;2.97;;;9.30;90.60;;;;;;9177216;19;20025;-68
2024/02/19 04:54:59;;;;;;;17.63;2.15;;;9.30;90.60;;;;;;9177323;19;20488;-68
2024/02/19 04:58:05;;;;;;;17.52;3.10;;;9.30;90.60;;;;;;9177297;19;20022;-68
2024/02/19 05:01:12;;;;;;;22.65;2.80;;;9.30;90.70;;;;;;9176006;19;20018;-68
2024/02/19 05:04:21;;;;;;;28.23;3.22;;;9.40;90.70;;;;;;9176436;19;20010;-68
2024/02/19 05:07:29;;;;;;;26.65;2.83;;;9.40;90.70;;;;;;9174825;19;20493;-68
2024/02/19 05:10:35;;;;;;;25.83;2.92;;;9.30;90.60;;;;;;9172747;19;20044;-68
2024/02/19 05:13:42;;;;;;;21.63;2.83;;;9.40;90.70;;;;;;9175604;19;20033;-68
2024/02/19 05:16:48;;;;;;;24.92;3.17;;;9.40;90.80;;;;;;9176050;19;20423;-68
2024/02/19 05:19:58;;;;;;;29.77;3.25;;;9.40;90.60;;;;;;9175556;19;20025;-68
2024/02/19 05:23:03;;;;;;;19.17;3.30;;;9.40;90.60;;;;;;9174122;19;20074;-68
2024/02/19 05:26:11;;;;;;;30.02;2.72;;;9.40;90.60;;;;;;9170662;19;20483;-68
2024/02/19 05:29:16;;;;;;;20.55;2.70;;;9.40;90.80;;;;;;9175579;19;20017;-68
2024/02/19 05:32:24;;;;;;;17.52;3.05;;;9.40;90.60;;;;;;9174337;19;20381;-68
2024/02/19 05:35:32;;;;;;;28.40;3.30;;;9.50;90.90;;;;;;9175997;19;20048;-67
2024/02/19 05:38:40;;;;;;;28.33;3.97;;;9.40;90.60;;;;;;9173275;19;20556;-67
2024/02/19 05:41:46;;;;;;;22.38;3.10;;;9.40;90.60;;;;;;9173439;19;20029;-66
2024/02/19 05:44:53;;;;;;;29.85;2.83;;;9.40;90.60;;;;;;9173754;19;20026;-67
2024/02/19 05:47:59;;;;;;;27.10;3.38;;;9.50;90.70;;;;;;9175115;19;20044;-68
2024/02/19 05:51:10;;;;;;;24.55;4.00;;;9.40;90.60;;;;;;9174725;19;20402;-68
2024/02/19 05:54:15;;;;;;;27.38;5.70;;;9.40;90.60;;;;;;9174956;19;20048;-67
2024/02/19 05:57:23;;;;;;;37.63;4.93;;;9.50;90.70;;;;;;9173577;19;20050;-68
2024/02/19 06:00:29;;;;;;;16.65;3.13;;;9.40;90.60;;;;;;9174304;19;20040;-67
2024/02/19 06:03:37;;;;;;;23.90;3.38;;;9.40;90.60;;;;;;9171920;19;20410;-69
2024/02/19 06:06:46;;;;;;;22.83;3.65;;;9.50;90.70;;;;;;9172417;19;20833;-68
2024/02/19 06:09:53;;;;;;;21.70;3.53;;;9.40;90.60;;;;;;9174219;19;20010;-68
2024/02/19 06:12:59;;;;;;;16.10;3.88;;;9.40;90.60;;;;;;9173604;19;20021;-67
2024/02/19 06:16:07;;;;;;;29.02;4.10;;;9.50;90.70;;;;;;9173423;19;20036;-67
2024/02/19 06:19:15;;;;;;;29.40;3.50;;;9.40;90.60;;;;;;9173498;19;20017;-67
2024/02/19 06:22:25;;;;;;;24.58;3.78;;;9.50;90.80;;;;;;9172705;19;20019;-67
2024/02/19 06:25:31;;;;;;;29.35;3.17;;;9.50;91.00;;;;;;9168218;19;20029;-67
2024/02/19 06:28:39;;;;;;;28.23;3.78;;;9.50;90.90;;;;;;9173606;19;20030;-69
2024/02/19 06:31:46;;;;;;;28.27;4.75;;;9.50;90.80;;;;;;9173192;19;20014;-69
2024/02/19 06:34:53;;;;;;;29.15;6.25;;;9.50;90.70;;;;;;9173620;19;20025;-68
2024/02/19 06:38:02;;;;;;;27.92;5.18;;;9.50;90.70;;;;;;9173611;19;20048;-67
2024/02/19 06:41:10;;;;;;;30.17;4.95;;;9.50;90.70;;;;;;9173785;19;20026;-68
2024/02/19 06:44:15;;;;;;;37.13;7.00;;;9.50;90.70;;;;;;9169254;19;20022;-69
2024/02/19 06:47:23;;;;;;;41.65;5.00;;;9.50;90.70;;;;;;9171650;19;20528;-68
2024/02/19 06:50:28;;;;;;;33.33;7.13;;;9.60;90.60;;;;;;9173217;19;20587;-68
2024/02/19 06:53:39;;;;;;;30.55;5.30;;;9.60;90.70;;;;;;9174717;19;20023;-69
2024/02/19 06:56:44;;;;;;;29.70;4.80;;;9.60;90.70;;;;;;9180892;19;20021;-69
2024/02/19 06:59:52;;;;;;;37.40;6.72;;;9.60;90.70;;;;;;9181388;19;20018;-68
2024/02/19 07:02:58;;;;;;;30.17;5.32;;;9.60;90.80;;;;;;9178183;19;20077;-68
2024/02/19 07:06:06;;;;;;;36.88;7.07;;;9.50;90.70;;;;;;9180217;19;20022;-68
2024/02/19 07:09:14;;;;;;;32.58;6.90;;;9.60;90.70;;;;;;9177864;19;20007;-69
2024/02/19 07:12:22;;;;;;;26.73;7.03;;;9.60;90.70;;;;;;9176637;19;20019;-69
2024/02/19 07:15:28;;;;;;;27.38;6.30;;;9.60;90.70;;;;;;9180911;19;20056;-69
2024/02/19 07:18:35;;;;;;;33.13;7.32;;;9.60;90.80;;;;;;9179828;19;20018;-69
2024/02/19 07:21:41;;;;;;;30.15;6.25;;;9.60;90.80;;;;;;9177416;19;20018;-69
2024/02/19 07:24:51;;;;;;;31.45;6.72;;;9.60;90.80;;;;;;9176744;19;20030;-69
2024/02/19 07:28:10;;;;;;;33.45;5.78;;;9.60;90.80;;;;;;9178061;19;20023;-69
2024/02/19 07:31:17;;;;;;;27.60;5.50;;;9.60;90.80;;;;;;9177056;19;20015;-69
2024/02/19 07:34:23;;;;;;;32.88;6.55;;;9.60;90.80;;;;;;9177524;19;20484;-69
2024/02/19 07:37:31;;;;;;;38.80;7.18;;;9.60;90.90;;;;;;9177462;19;20021;-69
2024/02/19 07:40:39;;;;;;;29.98;6.20;;;9.60;90.80;;;;;;9177931;19;20561;-69
2024/02/19 07:43:47;;;;;;;32.92;6.15;;;9.70;90.80;;;;;;9174934;19;20480;-69
2024/02/19 07:46:52;;;;;;;30.33;6.53;;;9.70;90.80;;;;;;9179008;19;20026;-69
2024/02/19 07:50:00;;;;;;;36.67;6.47;;;9.70;90.80;;;;;;9176403;19;20025;-69
2024/02/19 07:53:06;;;;;;;29.50;6.40;;;9.70;91.00;;;;;;9177723;19;20020;-69
2024/02/19 07:56:19;;;;;;;29.13;7.00;;;9.70;91.10;;;;;;9173213;19;20014;-69
2024/02/19 07:59:25;;;;;;;33.97;6.38;;;9.70;90.90;;;;;;9176055;19;20018;-69
2024/02/19 08:02:33;;;;;;;34.35;6.70;;;9.70;90.90;;;;;;9176812;19;20397;-69
2024/02/19 08:05:38;;;;;;;28.60;6.55;;;9.80;91.00;;;;;;9175039;19;20018;-69
2024/02/19 08:08:46;;;;;;;32.63;6.40;;;9.80;90.90;;;;;;9176713;19;20019;-69
2024/02/19 08:11:57;;;;;;;30.63;7.05;;;9.90;91.00;;;;;;9178175;19;20055;-69
2024/02/19 08:15:06;;;;;;;38.22;7.03;;;9.90;91.00;;;;;;9177905;19;20591;-69
2024/02/19 08:18:12;;;;;;;36.22;7.40;;;9.90;91.00;;;;;;9176782;19;20014;-69
2024/02/19 08:21:20;;;;;;;32.60;7.28;;;9.90;91.00;;;;;;9177536;19;20026;-69
2024/02/19 08:24:25;;;;;;;27.85;6.95;;;10.00;91.30;;;;;;9174201;19;20093;-69
2024/02/19 08:27:35;;;;;;;36.50;8.23;;;9.90;90.90;;;;;;9171076;19;20037;-69
2024/02/19 08:30:41;;;;;;;28.60;7.50;;;10.00;91.00;;;;;;9175747;19;20010;-69
2024/02/19 08:33:48;;;;;;;37.65;7.78;;;10.00;91.00;;;;;;9176904;19;20469;-69
2024/02/19 08:36:54;;;;;;;39.78;8.02;;;10.00;91.10;;;;;;9176696;19;20007;-69
2024/02/19 08:40:02;;;;;;;38.95;8.05;;;10.20;91.10;;;;;;9177203;19;20030;-69
2024/02/19 08:43:11;;;;;;;44.30;9.40;;;10.10;91.10;;;;;;9174953;19;20021;-69
2024/02/19 08:46:19;;;;;;;42.53;8.77;;;10.10;91.00;;;;;;9173043;19;20512;-69
2024/02/19 08:49:25;;;;;;;29.77;8.23;;;10.20;91.00;;;;;;9173814;19;20014;-69
2024/02/19 08:52:33;;;;;;;30.73;7.57;;;10.30;91.00;;;;;;9174796;19;20010;-69
2024/02/19 08:55:39;;;;;;;43.03;9.57;;;10.30;91.00;;;;;;9174157;19;20032;-69
2024/02/19 08:58:49;;;;;;;35.67;8.93;;;10.50;91.20;;;;;;9171129;19;20017;-69
2024/02/19 09:01:54;;;;;;;36.13;9.48;;;10.40;91.00;;;;;;9171406;19;20380;-69
2024/02/19 09:05:02;;;;;;;43.38;9.38;;;10.40;91.10;;;;;;9173612;19;20027;-69
2024/02/19 09:08:09;;;;;;;38.30;9.20;;;10.40;91.20;;;;;;9172381;19;20011;-69
2024/02/19 09:11:16;;;;;;;33.28;8.90;;;10.40;91.10;;;;;;9172229;19;20037;-69
2024/02/19 09:14:26;;;;;;;29.88;8.43;;;10.50;91.10;;;;;;9172082;19;20026;-69
2024/02/19 09:17:34;;;;;;;32.10;8.13;;;10.50;91.10;;;;;;9171085;19;20789;-69
2024/02/19 09:20:39;;;;;;;36.65;8.95;;;10.60;91.00;;;;;;9173410;19;20065;-69
2024/02/19 09:23:47;;;;;;;39.72;8.82;;;10.60;91.10;;;;;;9172810;19;20014;-69
2024/02/19 09:26:52;;;;;;;31.58;8.82;;;10.70;91.20;;;;;;9168352;19;20010;-69
2024/02/19 09:30:03;;;;;;;28.35;7.82;;;10.70;91.10;;;;;;9167283;19;20037;-69
2024/02/19 09:33:09;;;;;;;31.88;7.60;;;10.70;91.10;;;;;;9171007;19;20566;-69
2024/02/19 09:36:19;;;;;;;25.40;7.93;;;10.80;91.10;;;;;;9172468;19;20021;-69
2024/02/19 09:39:24;;;;;;;27.42;7.47;;;10.80;91.20;;;;;;9173813;19;20026;-69
2024/02/19 09:42:32;;;;;;;30.15;7.55;;;10.90;91.10;;;;;;9173619;19;20015;-70
2024/02/19 09:45:41;;;;;;;23.77;6.80;;;11.00;91.20;;;;;;9171314;19;20019;-69
2024/02/19 09:48:51;;;;;;;26.90;6.68;;;10.90;91.10;;;;;;9173449;19;20014;-69
2024/02/19 09:51:58;;;;;;;28.85;8.60;;;11.00;91.10;;;;;;9172048;19;20022;-68
2024/02/19 09:55:09;;;;;;;28.92;6.95;;;11.00;91.10;;;;;;9173489;19;20361;-70
2024/02/19 09:58:14;;;;;;;26.45;7.05;;;11.10;91.10;;;;;;9174593;19;20018;-69
2024/02/19 10:01:24;;;;;;;31.08;6.45;;;11.10;91.10;;;;;;9174077;19;20007;-68
2024/02/19 10:04:31;;;;;;;22.75;6.40;;;11.20;91.10;;;;;;9172524;19;20025;-68
2024/02/19 10:07:39;;;;;;;25.65;6.28;;;11.10;91.00;;;;;;9170836;19;20377;-68
2024/02/19 10:10:45;;;;;;;23.50;7.07;;;11.20;91.00;;;;;;9173459;19;20014;-70
2024/02/19 10:13:53;;;;;;;30.73;6.03;;;11.30;91.10;;;;;;9173113;19;20022;-69
2024/02/19 10:17:05;;;;;;;30.40;5.88;;;11.30;91.10;;;;;;9172829;19;20082;-69
2024/02/19 10:20:13;;;;;;;33.03;5.93;;;11.30;91.00;;;;;;9174596;19;20025;-69
2024/02/19 10:23:21;;;;;;;21.52;6.65;;;11.30;91.00;;;;;;9173691;19;20018;-68
2024/02/19 10:26:30;;;;;;;21.98;5.20;;;11.30;90.90;;;;;;9165956;19;20026;-68
2024/02/19 10:29:36;;;;;;;36.53;9.30;;;11.30;90.90;;;;;;9179260;19;20042;-68
2024/02/19 10:32:46;;;;;;;21.33;5.60;;;11.40;90.90;;;;;;9180574;19;20030;-68
2024/02/19 10:35:52;;;;;;;30.08;6.57;;;11.40;91.10;;;;;;9182425;19;20023;-69
2024/02/19 10:38:59;;;;;;;19.98;7.03;;;11.40;91.00;;;;;;9178807;19;20011;-69
2024/02/19 10:42:06;;;;;;;25.77;6.78;;;11.50;90.90;;;;;;9180536;19;20010;-69
2024/02/19 10:45:14;;;;;;;18.80;5.88;;;11.40;91.00;;;;;;9179402;19;20018;-68
2024/02/19 10:48:22;;;;;;;29.73;6.03;;;11.50;91.10;;;;;;9175323;19;20064;-69
2024/02/19 10:51:32;;;;;;;16.35;5.78;;;11.50;91.00;;;;;;9182461;19;20021;-69
2024/02/19 10:54:37;;;;;;;26.58;6.28;;;11.50;90.80;;;;;;9181718;19;20022;-68
2024/02/19 10:57:51;;;;;;;21.70;5.45;;;11.50;90.80;;;;;;9182359;19;20015;-68
2024/02/19 11:01:04;;;;;;;32.70;6.60;;;11.50;90.90;;;;;;9180564;19;20018;-69
2024/02/19 11:04:23;;;;;;;21.00;6.60;;;11.50;91.00;;;;;;9180856;19;20740;-68
2024/02/19 11:07:34;;;;;;;15.75;5.97;;;11.60;90.90;;;;;;9180251;19;20048;-69
2024/02/19 11:10:43;;;;;;;26.95;5.80;;;11.60;91.00;;;;;;9180560;19;20492;-69
2024/02/19 11:13:51;;;;;;;19.88;7.20;;;11.60;91.00;;;;;;9179861;19;20018;-68
2024/02/19 11:16:57;;;;;;;22.60;5.97;;;11.60;90.90;;;;;;9181492;19;20010;-68
2024/02/19 11:20:09;;;;;;;44.90;6.30;;;11.70;91.00;;;;;;9180848;19;20304;-69
2024/02/19 11:23:16;;;;;;;14.50;4.78;;;11.70;91.00;;;;;;9180361;19;20365;-68
2024/02/19 11:26:23;;;;;;;19.60;5.07;;;11.70;91.00;;;;;;9174388;19;20018;-68
2024/02/19 11:29:29;;;;;;;24.58;5.32;;;11.80;91.00;;;;;;9179612;19;20010;-68
2024/02/19 11:32:49;;;;;;;14.73;4.65;;;11.80;90.90;;;;;;9180472;19;20014;-69
2024/02/19 11:35:58;;;;;;;24.67;5.00;;;12.00;91.00;;;;;;9179890;19;20014;-69
2024/02/19 11:39:07;;;;;;;23.65;4.88;;;12.00;91.00;;;;;;9178214;19;20022;-68
2024/02/19 11:42:14;;;;;;;22.50;6.30;;;12.00;90.90;;;;;;9179033;19;20631;-69
2024/02/19 11:45:23;;;;;;;18.23;4.47;;;12.10;91.00;;;;;;9177405;19;20026;-68
2024/02/19 11:48:29;;;;;;;21.42;5.18;;;12.10;90.80;;;;;;9179662;19;20018;-68
2024/02/19 11:51:40;;;;;;;21.38;5.88;;;12.10;90.90;;;;;;9179057;19;20124;-68
2024/02/19 11:54:45;;;;;;;17.33;5.80;;;12.10;90.80;;;;;;9177662;19;20439;-68
2024/02/19 11:57:53;;;;;;;18.05;5.43;;;12.20;90.80;;;;;;9178403;19;20025;-68
2024/02/19 12:00:59;;;;;;;20.63;5.07;;;12.20;91.10;;;;;;9178489;19;20029;-68
2024/02/19 12:04:08;;;;;;;14.93;5.53;;;12.30;90.70;;;;;;9176417;19;20010;-68
2024/02/19 12:07:16;;;;;;;18.52;5.72;;;12.20;90.70;;;;;;9176355;19;20019;-68
2024/02/19 12:10:24;;;;;;;21.17;4.75;;;12.20;90.60;;;;;;9178394;19;20006;-69
2024/02/19 12:13:32;;;;;;;18.90;5.30;;;12.30;90.60;;;;;;9178220;19;21582;-69
2024/02/19 12:16:40;;;;;;;11.15;5.78;;;12.30;90.60;;;;;;9178946;19;20132;-68
2024/02/19 12:19:45;;;;;;;25.13;6.53;;;12.30;90.60;;;;;;9177967;19;20022;-69
2024/02/19 12:22:56;;;;;;;18.80;5.38;;;12.30;90.60;;;;;;9177742;19;20124;-69
2024/02/19 12:26:02;;;;;;;21.50;5.88;;;12.30;90.50;;;;;;9173243;19;20018;-68
2024/02/19 12:29:12;;;;;;;18.73;5.50;;;12.30;90.50;;;;;;9177564;19;20018;-68
2024/02/19 12:32:17;;;;;;;18.67;4.82;;;12.20;90.50;;;;;;9177629;19;20029;-68
2024/02/19 12:35:25;;;;;;;17.23;5.07;;;12.30;90.40;;;;;;9175691;19;20806;-68
2024/02/19 12:38:33;;;;;;;18.38;5.05;;;12.20;90.50;;;;;;9177391;19;20011;-69
2024/02/19 12:41:43;;;;;;;14.88;4.95;;;12.40;90.60;;;;;;9174812;19;20019;-68
2024/02/19 12:44:49;;;;;;;11.70;4.65;;;12.30;90.50;;;;;;9169709;19;20029;-69
2024/02/19 12:47:56;;;;;;;25.52;4.90;;;12.30;90.50;;;;;;9170909;19;20019;-68
2024/02/19 12:51:03;;;;;;;25.80;5.72;;;12.30;90.30;;;;;;9173121;19;20018;-69
2024/02/19 12:54:13;;;;;;;15.15;4.85;;;12.30;90.50;;;;;;9174411;19;20023;-69
2024/02/19 12:57:21;;;;;;;16.02;4.82;;;12.30;90.30;;;;;;9176218;19;20466;-68
2024/02/19 13:00:28;;;;;;;18.80;5.75;;;12.30;90.30;;;;;;9176546;19;20365;-68
2024/02/19 13:03:34;;;;;;;17.30;4.95;;;12.30;90.30;;;;;;9174997;19;20045;-69
2024/02/19 13:06:41;;;;;;;19.50;5.93;;;12.30;90.20;;;;;;9175695;19;20022;-68
2024/02/19 13:09:50;;;;;;;16.35;5.15;;;12.30;90.20;;;;;;9173284;19;20047;-69
2024/02/19 13:12:57;;;;;;;16.77;5.78;;;12.30;90.20;;;;;;9174699;19;20037;-69
2024/02/19 13:16:03;;;;;;;15.70;5.55;;;12.30;90.30;;;;;;9173403;19;20018;-69
2024/02/19 13:19:11;;;;;;;11.13;5.07;;;12.30;90.20;;;;;;9173823;19;20022;-68
2024/02/19 13:22:17;;;;;;;16.67;5.82;;;12.20;90.20;;;;;;9171105;19;20023;-68
2024/02/19 13:25:27;;;;;;;17.42;5.60;;;12.20;90.20;;;;;;9153738;19;20021;-69
2024/02/19 13:28:33;;;;;;;19.15;5.85;;;12.20;90.10;;;;;;9170967;19;20014;-68
2024/02/19 13:31:41;;;;;;;17.42;5.57;;;12.20;90.20;;;;;;9173217;19;20356;-68
2024/02/19 13:34:47;;;;;;;25.05;5.45;;;12.10;90.20;;;;;;9173374;19;20030;-69
2024/02/19 13:37:56;;;;;;;18.25;5.65;;;12.10;90.20;;;;;;9173540;19;20010;-71
2024/02/19 13:41:04;;;;;;;19.52;5.07;;;12.10;90.20;;;;;;9174617;19;20090;-70
2024/02/19 13:44:13;;;;;;;13.48;4.97;;;12.10;90.20;;;;;;9174482;19;20014;-70
2024/02/19 13:47:21;;;;;;;14.93;4.80;;;12.20;90.30;;;;;;9173214;19;20014;-69
2024/02/19 13:50:29;;;;;;;15.95;4.53;;;12.10;90.10;;;;;;9173351;19;20018;-69
2024/02/19 13:53:35;;;;;;;9.73;4.43;;;12.00;90.10;;;;;;9174479;19;20112;-68
2024/02/19 13:56:45;;;;;;;16.00;4.30;;;12.00;90.30;;;;;;9173165;19;20511;-69
2024/02/19 13:59:51;;;;;;;12.68;3.97;;;12.00;90.20;;;;;;9174705;19;20040;-68
2024/02/19 14:02:58;;;;;;;21.65;6.07;;;12.00;90.20;;;;;;9177151;19;20463;-70
2024/02/19 14:06:04;;;;;;;17.20;4.82;;;12.00;90.30;;;;;;9183527;19;20448;-69
2024/02/19 14:09:13;;;;;;;20.92;5.35;;;12.00;90.30;;;;;;9177788;19;20019;-69
2024/02/19 14:12:21;;;;;;;18.88;6.20;;;12.00;90.20;;;;;;9182155;19;20044;-69
2024/02/19 14:15:28;;;;;;;14.18;4.65;;;12.00;90.20;;;;;;9181033;19;20026;-68
2024/02/19 14:18:34;;;;;;;17.35;4.40;;;12.00;90.40;;;;;;9179088;19;20082;-68
2024/02/19 14:21:41;;;;;;;15.38;4.32;;;12.00;90.30;;;;;;9178396;19;20019;-70
2024/02/19 14:24:47;;;;;;;18.60;5.88;;;11.90;90.20;;;;;;9181012;19;20011;-68
2024/02/19 14:27:59;;;;;;;19.60;4.88;;;12.00;90.20;;;;;;9171623;19;20026;-73
2024/02/19 14:31:05;;;;;;;18.67;4.78;;;12.00;90.30;;;;;;9178594;19;20026;-68
2024/02/19 14:34:13;;;;;;;20.83;4.95;;;11.90;90.20;;;;;;9176517;19;20025;-69
2024/02/19 14:37:18;;;;;;;19.35;5.07;;;11.90;90.20;;;;;;9176345;19;20018;-68
2024/02/19 14:40:26;;;;;;;17.05;4.75;;;11.90;90.50;;;;;;9180652;19;20030;-68
2024/02/19 14:43:34;;;;;;;17.98;4.63;;;11.90;90.30;;;;;;9180906;19;20023;-69
2024/02/19 14:46:42;;;;;;;16.40;5.05;;;12.00;90.30;;;;;;9176335;19;20484;-68
2024/02/19 14:50:02;;;;;;;17.17;5.13;;;11.90;90.30;;;;;;9175354;19;20014;-69
2024/02/19 14:53:10;;;;;;;15.18;4.93;;;11.90;90.40;;;;;;9177425;19;20014;-69
2024/02/19 14:56:15;;;;;;;18.90;4.50;;;11.80;90.20;;;;;;9178237;19;20018;-69
2024/02/19 14:59:26;;;;;;;17.10;5.20;;;11.90;90.20;;;;;;9178895;19;20017;-69
2024/02/19 15:02:32;;;;;;;15.38;5.07;;;11.80;90.20;;;;;;9178655;19;20054;-69
2024/02/19 15:05:40;;;;;;;13.57;5.10;;;11.90;90.50;;;;;;9178570;19;20102;-69
2024/02/19 15:08:48;;;;;;;24.75;4.43;;;11.90;90.30;;;;;;9175611;19;20015;-68
2024/02/19 15:11:56;;;;;;;17.95;4.25;;;11.90;90.30;;;;;;9178243;19;20420;-69
2024/02/19 15:15:05;;;;;;;10.27;3.88;;;11.80;90.20;;;;;;9175796;19;20014;-69
2024/02/19 15:18:14;;;;;;;14.50;4.00;;;11.90;90.30;;;;;;9177227;19;20022;-69
2024/02/19 15:21:21;;;;;;;19.77;4.60;;;11.90;90.20;;;;;;9177771;19;20057;-69
2024/02/19 15:24:28;;;;;;;13.68;4.13;;;11.80;90.20;;;;;;9175657;19;20017;-68
2024/02/19 15:27:36;;;;;;;15.60;4.40;;;11.90;90.60;;;;;;9170814;19;20014;-70
2024/02/19 15:30:46;;;;;;;17.55;4.20;;;11.80;90.20;;;;;;9178494;19;20760;-69
2024/02/19 15:33:52;;;;;;;15.27;4.53;;;11.80;90.30;;;;;;9172080;19;20011;-68
2024/02/19 15:37:00;;;;;;;16.50;3.58;;;11.80;90.20;;;;;;9177453;19;20034;-69
2024/02/19 15:40:06;;;;;;;17.60;3.75;;;11.70;90.10;;;;;;9172111;19;20052;-69
2024/02/19 15:43:14;;;;;;;14.82;4.47;;;11.70;90.10;;;;;;9173344;19;20014;-68
2024/02/19 15:46:22;;;;;;;15.50;3.55;;;11.70;90.10;;;;;;9178722;19;20018;-68
2024/02/19 15:49:29;;;;;;;21.77;4.03;;;11.70;90.20;;;;;;9173882;19;20566;-68
2024/02/19 15:52:36;;;;;;;17.00;3.75;;;11.60;90.10;;;;;;9176535;19;20014;-68
2024/02/19 15:55:43;;;;;;;15.10;4.13;;;11.60;90.10;;;;;;9177479;19;20480;-68
2024/02/19 15:58:49;;;;;;;20.35;3.95;;;11.60;90.10;;;;;;9168101;19;20026;-68
2024/02/19 16:02:02;;;;;;;26.30;5.47;;;11.60;90.10;;;;;;9176712;19;20014;-69
2024/02/19 16:05:10;;;;;;;12.50;3.75;;;11.70;90.50;;;;;;9178072;19;20048;-69
2024/02/19 16:08:41;;;;;;;20.38;4.25;;;11.50;90.10;;;;;;9175679;19;20019;-68
2024/02/19 16:11:47;;;;;;;17.02;4.35;;;11.60;90.10;;;;;;9177887;19;20381;-68